Time;durP1;ratioP1;P1;durP2;ratioP2;P2;SDS_P1;SDS_P2;PMS_P1;PMS_P2;Temp;Humidity;BMP_temperature;BMP_pressure;BME280_temperature;BME280_humidity;BME280_pressure;Samples;Min_cycle;Max_cycle;Signal;HPM_P1;HPM_P2
2022/05/23 00:01:05;;;;;;;15.05;7.22;;;10.80;99.90;;;;;;4947032;28;20023;-91
2022/05/23 00:03:31;;;;;;;8.48;6.45;;;10.80;99.90;;;;;;4940633;29;20024;-91
2022/05/23 00:05:58;;;;;;;7.53;6.55;;;10.70;99.90;;;;;;4943810;29;20031;-91
2022/05/23 00:08:25;;;;;;;7.53;6.85;;;10.70;99.90;;;;;;4952443;28;20030;-91
2022/05/23 00:10:51;;;;;;;9.45;7.10;;;10.60;99.90;;;;;;4940414;29;20023;-91
2022/05/23 00:13:17;;;;;;;7.30;6.60;;;10.60;99.90;;;;;;4953382;28;20039;-90
2022/05/23 00:15:43;;;;;;;8.25;7.43;;;10.50;99.90;;;;;;4947366;28;20080;-90
2022/05/23 00:18:09;;;;;;;8.00;6.57;;;10.50;99.90;;;;;;4939777;29;20436;-91
2022/05/23 00:20:34;;;;;;;9.55;7.45;;;10.50;99.90;;;;;;4950445;28;20028;-91
2022/05/23 00:23:00;;;;;;;10.63;7.45;;;10.50;99.90;;;;;;4943775;28;20032;-91
2022/05/23 00:25:26;;;;;;;7.68;6.95;;;10.50;99.90;;;;;;4955492;28;20031;-90
2022/05/23 00:27:52;;;;;;;8.32;7.30;;;10.40;99.90;;;;;;4945041;29;20055;-91
2022/05/23 00:30:24;;;;;;;8.43;6.45;;;10.40;99.90;;;;;;4935373;28;20459;-91
2022/05/23 00:35:35;;;;;;;7.80;7.10;;;10.30;99.90;;;;;;4947619;28;20395;-91
2022/05/23 00:38:01;;;;;;;10.65;7.72;;;10.30;99.90;;;;;;4942234;29;20067;-91
2022/05/23 00:40:37;;;;;;;8.23;7.53;;;10.20;99.90;;;;;;4940162;28;20027;-91
2022/05/23 00:43:16;;;;;;;8.75;7.97;;;10.20;99.90;;;;;;4943281;29;20024;-91
2022/05/23 00:46:01;;;;;;;13.93;7.93;;;10.10;99.90;;;;;;4934433;29;20492;-90
2022/05/23 00:48:29;;;;;;;11.70;7.50;;;10.10;99.90;;;;;;4941767;28;20063;-90
2022/05/23 00:51:01;;;;;;;10.50;7.50;;;10.00;99.90;;;;;;4934910;29;20023;-90
2022/05/23 00:53:31;;;;;;;9.77;7.68;;;10.00;99.90;;;;;;4941373;28;20062;-91
2022/05/23 00:55:57;;;;;;;8.20;7.47;;;9.90;99.90;;;;;;4952124;28;20027;-91
2022/05/23 00:58:30;;;;;;;9.63;8.35;;;9.90;99.90;;;;;;4950845;28;20270;-91
2022/05/23 01:01:01;;;;;;;8.57;7.78;;;9.80;99.90;;;;;;4941682;29;20023;-91
2022/05/23 01:03:27;;;;;;;8.77;8.05;;;9.70;99.90;;;;;;4944384;28;20027;-92
2022/05/23 01:05:54;;;;;;;10.23;8.48;;;9.70;99.90;;;;;;4936818;28;20076;-91
2022/05/23 01:08:21;;;;;;;10.18;8.85;;;9.60;99.90;;;;;;4946160;28;20555;-91
2022/05/23 01:10:47;;;;;;;9.20;8.27;;;9.60;99.90;;;;;;4953854;28;20066;-91
2022/05/23 01:13:15;;;;;;;9.55;8.20;;;9.50;99.90;;;;;;4955713;28;20057;-91
2022/05/23 01:15:44;;;;;;;9.60;8.80;;;9.50;99.90;;;;;;4962609;28;20035;-91
2022/05/23 01:18:09;;;;;;;9.93;8.98;;;9.40;99.90;;;;;;4952439;28;20042;-90
2022/05/23 01:20:35;;;;;;;9.45;8.52;;;9.40;99.90;;;;;;4940713;28;20031;-91
2022/05/23 01:23:06;;;;;;;9.85;8.95;;;9.40;99.90;;;;;;4966256;28;20035;-91
2022/05/23 01:25:38;;;;;;;9.60;8.70;;;9.30;99.90;;;;;;4956501;29;20031;-91
2022/05/23 01:28:04;;;;;;;13.30;9.07;;;9.30;99.90;;;;;;4966662;28;20487;-89
2022/05/23 01:30:31;;;;;;;12.40;9.32;;;9.20;99.90;;;;;;4958048;28;20169;-91
2022/05/23 01:32:57;;;;;;;12.10;9.10;;;9.20;99.90;;;;;;4945082;29;20039;-91
2022/05/23 01:35:22;;;;;;;10.18;8.68;;;9.10;99.90;;;;;;4960577;28;20518;-91
2022/05/23 01:37:48;;;;;;;11.85;8.43;;;9.10;99.90;;;;;;4965374;28;20019;-91
2022/05/23 01:40:16;;;;;;;11.02;9.82;;;9.10;99.90;;;;;;4944395;29;20466;-91
2022/05/23 01:42:43;;;;;;;9.77;8.52;;;9.00;99.90;;;;;;4932331;28;20063;-89
2022/05/23 01:45:09;;;;;;;10.85;9.95;;;9.00;99.90;;;;;;4945761;28;20028;-90
2022/05/23 01:47:35;;;;;;;11.23;10.27;;;8.90;99.90;;;;;;4938968;28;20054;-90
2022/05/23 01:50:01;;;;;;;10.60;9.60;;;8.80;99.90;;;;;;4955268;28;20039;-90
2022/05/23 01:52:41;;;;;;;11.10;10.10;;;8.80;99.90;;;;;;4967069;28;20394;-90
2022/05/23 01:55:08;;;;;;;12.13;10.50;;;8.80;99.90;;;;;;4960428;28;20503;-90
2022/05/23 01:57:34;;;;;;;11.18;10.07;;;8.70;99.90;;;;;;4960639;28;20035;-90
2022/05/23 02:02:47;;;;;;;11.75;10.55;;;8.70;99.90;;;;;;4965980;28;20402;-90
2022/05/23 02:05:14;;;;;;;15.10;10.77;;;8.70;99.90;;;;;;4967158;28;20404;-89
2022/05/23 02:07:40;;;;;;;12.50;10.27;;;8.60;99.90;;;;;;4967167;28;20063;-91
2022/05/23 02:10:06;;;;;;;13.00;11.60;;;8.60;99.90;;;;;;4955023;29;20035;-91
2022/05/23 02:12:31;;;;;;;17.85;12.82;;;8.50;99.90;;;;;;4943807;28;20043;-90
2022/05/23 02:14:57;;;;;;;13.60;10.57;;;8.50;99.90;;;;;;4947968;28;20548;-91
2022/05/23 02:17:23;;;;;;;15.20;11.38;;;8.40;99.90;;;;;;4961900;28;20027;-90
2022/05/23 02:19:49;;;;;;;12.73;11.35;;;8.40;99.90;;;;;;4960755;28;20443;-90
2022/05/23 02:22:15;;;;;;;11.88;10.82;;;8.40;99.90;;;;;;4948274;28;20023;-90
2022/05/23 02:24:40;;;;;;;13.75;10.48;;;8.40;99.90;;;;;;4948314;28;20120;-91
2022/05/23 02:27:07;;;;;;;12.07;10.93;;;8.30;99.90;;;;;;4963658;28;20050;-91
2022/05/23 02:29:34;;;;;;;10.05;9.15;;;8.30;99.90;;;;;;4958333;28;20023;-90
2022/05/23 02:32:00;;;;;;;11.00;9.90;;;8.30;99.90;;;;;;4939529;29;20508;-91
2022/05/23 02:34:26;;;;;;;10.90;9.80;;;8.30;99.90;;;;;;4965705;28;20035;-91
2022/05/23 02:36:52;;;;;;;10.88;9.23;;;8.30;99.90;;;;;;4960520;28;20027;-89
2022/05/23 02:39:18;;;;;;;9.95;8.63;;;8.30;99.90;;;;;;4960596;28;20035;-91
2022/05/23 02:41:43;;;;;;;13.68;10.05;;;8.30;99.90;;;;;;4962961;28;20513;-91
2022/05/23 02:44:09;;;;;;;11.35;10.07;;;8.40;99.90;;;;;;4948045;28;20038;-91
2022/05/23 02:46:35;;;;;;;12.10;10.98;;;8.40;99.90;;;;;;4952760;28;20027;-91
2022/05/23 02:49:01;;;;;;;12.35;11.35;;;8.40;99.90;;;;;;4951578;28;20075;-91
2022/05/23 02:51:28;;;;;;;11.30;10.30;;;8.30;99.90;;;;;;4940801;28;20032;-91
2022/05/23 02:53:53;;;;;;;11.18;10.18;;;8.30;99.90;;;;;;4946721;28;20119;-91
2022/05/23 02:56:19;;;;;;;12.18;11.05;;;8.30;99.90;;;;;;4938131;29;20492;-91
2022/05/23 02:58:44;;;;;;;11.38;10.10;;;8.30;99.90;;;;;;4953638;28;20098;-90
2022/05/23 03:01:11;;;;;;;14.10;10.95;;;8.40;99.90;;;;;;4941616;29;20105;-91
2022/05/23 03:03:37;;;;;;;13.38;11.68;;;8.40;99.90;;;;;;4940954;28;20038;-91
2022/05/23 03:06:03;;;;;;;12.70;11.55;;;8.40;99.90;;;;;;4953025;28;20496;-91
2022/05/23 03:08:29;;;;;;;12.85;11.75;;;8.50;99.90;;;;;;4947858;28;20032;-91
2022/05/23 03:11:00;;;;;;;13.98;10.55;;;8.50;99.90;;;;;;4962015;28;20028;-91
2022/05/23 03:13:26;;;;;;;12.27;9.43;;;8.60;99.90;;;;;;4950504;28;20038;-91
2022/05/23 03:15:52;;;;;;;11.13;9.38;;;8.60;99.90;;;;;;4944734;28;20086;-91
2022/05/23 03:18:18;;;;;;;10.77;9.77;;;8.60;99.90;;;;;;4954180;28;20550;-91
2022/05/23 03:20:44;;;;;;;10.52;8.63;;;8.70;99.90;;;;;;4943446;29;20504;-90
2022/05/23 03:29:00;;;;;;;10.50;9.60;;;8.70;99.90;;;;;;4949606;28;20034;-91
2022/05/23 03:31:27;;;;;;;10.98;10.07;;;8.80;99.90;;;;;;4954034;28;20047;-91
2022/05/23 03:33:53;;;;;;;10.32;9.32;;;8.70;99.90;;;;;;4948216;28;20051;-91
2022/05/23 03:36:19;;;;;;;11.23;9.02;;;8.80;99.90;;;;;;4948586;28;20528;-90
2022/05/23 03:38:45;;;;;;;10.45;8.95;;;8.80;99.90;;;;;;4948882;28;20043;-91
2022/05/23 03:41:11;;;;;;;10.45;8.50;;;8.80;99.90;;;;;;4946154;28;20032;-90
2022/05/23 03:43:37;;;;;;;10.00;8.82;;;8.90;99.90;;;;;;4964214;28;20089;-90
2022/05/23 03:46:08;;;;;;;10.40;9.35;;;8.90;99.90;;;;;;4950471;28;20023;-91
2022/05/23 03:48:34;;;;;;;9.80;8.90;;;9.00;99.90;;;;;;4945171;28;20019;-91
2022/05/23 03:51:01;;;;;;;9.73;8.73;;;9.00;99.90;;;;;;4952019;28;20028;-92
2022/05/23 03:53:28;;;;;;;10.10;9.20;;;9.10;99.90;;;;;;4945499;29;20082;-91
2022/05/23 03:55:53;;;;;;;10.27;8.82;;;9.10;99.90;;;;;;4949442;28;20032;-91
2022/05/23 03:58:19;;;;;;;9.40;8.60;;;9.20;99.90;;;;;;4953693;28;20094;-91
2022/05/23 04:00:49;;;;;;;11.35;8.70;;;9.20;99.90;;;;;;4941553;28;20148;-91
2022/05/23 04:03:16;;;;;;;11.77;10.13;;;9.20;99.90;;;;;;4953295;28;20024;-91
2022/05/23 04:05:42;;;;;;;9.77;8.77;;;9.20;99.90;;;;;;4948716;28;20086;-90
2022/05/23 04:08:09;;;;;;;12.27;9.40;;;9.20;99.90;;;;;;4936689;29;20030;-91
2022/05/23 04:10:35;;;;;;;9.57;8.73;;;9.20;99.90;;;;;;4945821;28;20028;-91
2022/05/23 04:13:02;;;;;;;14.05;9.55;;;9.20;99.90;;;;;;4939969;28;20067;-91
2022/05/23 04:15:29;;;;;;;10.65;8.25;;;9.30;99.90;;;;;;4937484;29;20050;-92
2022/05/23 04:17:54;;;;;;;9.48;8.57;;;9.30;99.90;;;;;;4951175;29;20091;-91
2022/05/23 04:20:20;;;;;;;13.32;9.18;;;9.40;99.90;;;;;;4936439;28;20024;-91
2022/05/23 04:22:48;;;;;;;9.57;8.40;;;9.50;99.90;;;;;;4938030;29;20103;-91
2022/05/23 04:25:14;;;;;;;10.68;9.70;;;9.50;99.90;;;;;;4935058;28;20043;-91
2022/05/23 04:27:40;;;;;;;9.75;8.77;;;9.60;99.90;;;;;;4946983;29;20055;-90
2022/05/23 04:30:08;;;;;;;9.20;8.20;;;9.60;99.90;;;;;;4951833;28;20054;-91
2022/05/23 04:35:18;;;;;;;8.90;8.00;;;9.80;99.90;;;;;;4934314;29;20031;-91
2022/05/23 04:37:48;;;;;;;11.75;8.68;;;9.80;99.90;;;;;;4940340;29;20071;-90
2022/05/23 04:40:19;;;;;;;9.77;8.38;;;9.90;99.90;;;;;;4966305;28;20026;-91
2022/05/23 04:42:44;;;;;;;9.18;8.38;;;9.90;99.90;;;;;;4960973;28;20027;-91
2022/05/23 04:45:11;;;;;;;10.25;8.52;;;10.00;99.90;;;;;;4948238;28;20028;-90
2022/05/23 04:50:22;;;;;;;9.10;8.07;;;10.10;99.90;;;;;;4941311;29;20110;-91
2022/05/23 04:52:48;;;;;;;9.77;8.98;;;10.20;99.90;;;;;;4950023;28;20075;-91
2022/05/23 04:55:15;;;;;;;8.15;7.45;;;10.30;99.90;;;;;;4935871;29;20058;-91
2022/05/23 04:57:41;;;;;;;9.00;8.13;;;10.40;99.90;;;;;;4945907;28;20032;-90
2022/05/23 05:00:09;;;;;;;9.60;8.48;;;10.50;99.90;;;;;;4961139;28;20040;-91
2022/05/23 05:02:36;;;;;;;8.10;6.80;;;10.60;99.90;;;;;;4939761;28;20035;-91
2022/05/23 05:05:05;;;;;;;10.18;7.85;;;10.70;99.90;;;;;;4937780;29;20560;-91
2022/05/23 05:07:31;;;;;;;8.70;7.30;;;10.90;99.90;;;;;;4950325;29;20066;-91
2022/05/23 05:09:56;;;;;;;8.23;6.88;;;11.00;99.90;;;;;;4963715;28;20023;-90
2022/05/23 05:12:22;;;;;;;9.85;7.28;;;11.10;99.90;;;;;;4952660;28;20036;-91
2022/05/23 05:14:48;;;;;;;8.77;7.50;;;11.30;99.90;;;;;;4951003;28;20039;-92
2022/05/23 05:17:13;;;;;;;18.38;7.43;;;11.50;99.90;;;;;;4958976;28;20027;-92
2022/05/23 05:19:39;;;;;;;7.78;7.03;;;11.60;99.90;;;;;;4942553;28;20550;-91
2022/05/23 05:22:05;;;;;;;7.60;7.00;;;11.80;99.90;;;;;;4941313;29;20091;-90
2022/05/23 05:24:32;;;;;;;7.43;6.72;;;12.00;99.90;;;;;;4938525;28;20617;-91
2022/05/23 05:26:59;;;;;;;7.82;7.07;;;12.10;99.90;;;;;;4937526;29;20036;-91
2022/05/23 05:29:24;;;;;;;8.00;7.20;;;12.30;99.90;;;;;;4945658;29;20031;-91
2022/05/23 05:32:02;;;;;;;7.90;7.15;;;12.40;99.90;;;;;;4955070;28;20031;-91
2022/05/23 05:34:43;;;;;;;7.45;6.85;;;12.50;99.90;;;;;;4968292;28;20117;-91
2022/05/23 05:37:16;;;;;;;7.22;6.68;;;12.60;99.90;;;;;;4941569;29;20144;-91
2022/05/23 05:39:45;;;;;;;7.50;6.60;;;12.80;99.90;;;;;;4951218;28;20388;-91
2022/05/23 05:42:18;;;;;;;8.80;7.78;;;12.90;99.90;;;;;;4958495;28;20045;-91
2022/05/23 05:44:55;;;;;;;6.90;6.30;;;13.10;99.90;;;;;;4957628;28;20030;-90
2022/05/23 05:47:21;;;;;;;6.68;6.10;;;13.30;99.90;;;;;;4966231;28;20032;-91
2022/05/23 05:49:52;;;;;;;7.00;6.30;;;13.40;99.90;;;;;;4943238;28;20078;-91
2022/05/23 05:52:20;;;;;;;7.05;6.55;;;13.60;99.90;;;;;;4968545;28;20082;-92
2022/05/23 05:54:46;;;;;;;8.25;5.82;;;13.80;99.90;;;;;;4964115;28;20043;-92
2022/05/23 05:57:13;;;;;;;5.72;5.18;;;14.20;99.90;;;;;;4965851;28;20468;-92
2022/05/23 05:59:40;;;;;;;5.95;5.28;;;14.70;99.90;;;;;;4945010;28;20058;-91
2022/05/23 06:02:07;;;;;;;6.00;4.75;;;15.30;99.90;;;;;;4939952;29;20122;-91
2022/05/23 06:04:34;;;;;;;4.82;4.43;;;15.50;99.90;;;;;;4959697;28;20034;-91
2022/05/23 06:12:29;;;;;;;5.70;4.93;;;16.20;99.90;;;;;;4942995;28;20047;-91
2022/05/23 06:14:55;;;;;;;4.65;4.28;;;16.10;99.90;;;;;;4940209;28;20039;-92
2022/05/23 06:17:21;;;;;;;5.65;5.07;;;15.80;99.90;;;;;;4945527;29;20081;-91
2022/05/23 06:19:47;;;;;;;5.25;4.78;;;15.90;99.90;;;;;;4940616;29;20031;-91
2022/05/23 06:22:14;;;;;;;4.90;4.50;;;15.90;99.90;;;;;;4957532;28;20557;-91
2022/05/23 06:24:41;;;;;;;6.63;4.30;;;15.80;99.90;;;;;;4965513;28;20102;-93
2022/05/23 06:27:08;;;;;;;5.28;4.78;;;15.90;99.90;;;;;;4975125;28;20027;-92
2022/05/23 06:29:38;;;;;;;7.88;4.80;;;15.80;99.90;;;;;;4973517;28;20019;-92
2022/05/23 06:32:05;;;;;;;7.20;4.20;;;15.80;99.90;;;;;;4961719;28;20106;-92
2022/05/23 06:34:30;;;;;;;4.40;3.97;;;15.80;99.90;;;;;;4972682;28;20015;-91
2022/05/23 06:36:56;;;;;;;5.32;4.40;;;15.90;99.90;;;;;;4975376;28;20033;-92
2022/05/23 06:39:23;;;;;;;5.05;4.63;;;16.00;99.90;;;;;;4973835;28;20038;-92
2022/05/23 06:41:49;;;;;;;4.20;3.80;;;16.10;99.90;;;;;;4954496;28;20038;-92
2022/05/23 06:44:14;;;;;;;4.05;3.75;;;16.30;99.90;;;;;;4961958;28;20027;-91
2022/05/23 06:46:40;;;;;;;5.50;4.65;;;16.40;99.90;;;;;;4967819;28;20041;-91
2022/05/23 06:49:06;;;;;;;5.38;4.30;;;16.30;99.90;;;;;;4972383;28;20057;-92
2022/05/23 06:51:33;;;;;;;4.53;4.10;;;16.40;99.90;;;;;;4956371;28;20395;-91
2022/05/23 06:53:59;;;;;;;5.00;3.97;;;16.40;99.90;;;;;;4974017;28;20035;-91
2022/05/23 06:56:25;;;;;;;4.47;4.05;;;16.60;99.90;;;;;;4970956;28;20032;-92
2022/05/23 06:58:51;;;;;;;6.57;4.55;;;16.80;99.90;;;;;;4967590;28;20075;-91
2022/05/23 07:01:16;;;;;;;4.88;4.15;;;17.00;99.90;;;;;;4957303;28;20079;-92
2022/05/23 07:03:42;;;;;;;3.60;3.30;;;17.30;99.90;;;;;;4955211;28;20035;-89
2022/05/23 07:14:22;;;;;;;4.35;3.08;;;18.20;96.50;;;;;;4960709;28;20084;-90
2022/05/23 07:16:48;;;;;;;5.65;3.30;;;18.30;95.80;;;;;;4963849;28;20059;-90
2022/05/23 07:19:14;;;;;;;3.15;2.63;;;18.20;94.50;;;;;;4956087;28;20371;-90
2022/05/23 07:21:40;;;;;;;2.55;2.35;;;18.20;94.00;;;;;;4940175;28;20062;-90
2022/05/23 07:24:06;;;;;;;3.65;2.10;;;18.20;93.00;;;;;;4964984;28;20066;-88
2022/05/23 07:26:31;;;;;;;2.38;2.17;;;18.30;91.50;;;;;;4952060;28;20403;-89
2022/05/23 07:28:57;;;;;;;3.95;2.25;;;18.40;91.50;;;;;;4974834;28;20064;-89
2022/05/23 07:31:23;;;;;;;2.38;2.10;;;18.20;91.60;;;;;;4948501;28;20022;-91
2022/05/23 07:33:49;;;;;;;3.42;1.85;;;18.40;92.20;;;;;;4967776;28;20486;-90
2022/05/23 07:36:15;;;;;;;2.97;1.92;;;18.50;90.70;;;;;;4955369;28;20143;-90
2022/05/23 07:38:42;;;;;;;2.17;1.98;;;18.70;89.70;;;;;;4955208;28;20028;-89
2022/05/23 07:41:09;;;;;;;4.10;1.98;;;19.00;88.80;;;;;;4941425;28;20040;-90
2022/05/23 07:43:37;;;;;;;2.00;1.80;;;19.30;83.80;;;;;;4946182;28;20042;-91
2022/05/23 07:46:09;;;;;;;3.88;1.85;;;19.60;84.80;;;;;;4953349;28;20043;-90
2022/05/23 07:48:36;;;;;;;4.18;2.00;;;19.50;84.10;;;;;;4942792;29;20082;-90
2022/05/23 07:51:03;;;;;;;3.45;1.73;;;19.50;81.80;;;;;;4947832;28;20407;-91
2022/05/23 08:01:45;;;;;;;2.88;1.67;;;18.60;83.20;;;;;;4946474;28;20058;-90
2022/05/23 08:04:11;;;;;;;3.13;1.92;;;18.70;82.30;;;;;;4931220;29;20074;-91
2022/05/23 08:06:36;;;;;;;4.75;1.83;;;18.80;81.30;;;;;;4940222;29;20039;-91
2022/05/23 08:09:03;;;;;;;4.40;1.50;;;18.70;81.90;;;;;;4929891;29;20028;-91
2022/05/23 08:11:28;;;;;;;3.30;1.83;;;18.70;82.60;;;;;;4958155;28;20038;-90
2022/05/23 08:13:56;;;;;;;7.93;1.90;;;18.60;82.50;;;;;;4967566;28;20023;-91
2022/05/23 08:16:22;;;;;;;2.20;1.50;;;18.50;83.40;;;;;;4945141;28;20030;-89
2022/05/23 08:18:48;;;;;;;4.72;1.63;;;18.20;81.40;;;;;;4939632;28;20521;-90
2022/05/23 08:21:15;;;;;;;2.55;1.80;;;18.10;84.50;;;;;;4954407;28;20110;-91
2022/05/23 08:23:42;;;;;;;3.72;2.00;;;18.00;84.00;;;;;;4962197;28;20053;-88
2022/05/23 08:26:08;;;;;;;2.45;1.83;;;18.00;83.30;;;;;;4971547;28;20069;-90
2022/05/23 08:28:34;;;;;;;10.20;2.05;;;18.00;83.70;;;;;;4965170;28;20035;-91
2022/05/23 08:30:59;;;;;;;2.63;2.00;;;18.10;82.80;;;;;;4968655;28;20395;-91
2022/05/23 08:33:26;;;;;;;3.80;1.80;;;18.20;82.80;;;;;;4949272;28;20077;-90
2022/05/23 08:35:52;;;;;;;5.03;1.77;;;18.40;84.10;;;;;;4965911;28;20045;-90
2022/05/23 08:38:18;;;;;;;2.65;1.60;;;18.60;80.70;;;;;;4952590;28;20031;-89
2022/05/23 08:41:08;;;;;;;5.10;1.98;;;18.60;80.30;;;;;;4968970;28;20037;-89
2022/05/23 08:43:43;;;;;;;6.77;2.27;;;18.50;82.00;;;;;;4974465;28;20059;-91
2022/05/23 08:46:17;;;;;;;4.38;2.03;;;18.40;80.40;;;;;;4974351;28;20066;-89
2022/05/23 08:48:49;;;;;;;2.47;1.90;;;18.10;81.60;;;;;;4978251;28;20050;-89
2022/05/23 08:51:26;;;;;;;5.85;1.70;;;18.00;83.60;;;;;;4967489;28;20110;-90
2022/05/23 08:54:18;;;;;;;3.58;1.80;;;18.00;83.50;;;;;;4972242;28;20114;-90
2022/05/23 08:56:53;;;;;;;5.03;2.20;;;18.10;83.40;;;;;;4965336;28;20083;-90
2022/05/23 08:59:37;;;;;;;9.35;1.77;;;18.20;85.00;;;;;;4979663;28;20023;-90
2022/05/23 09:02:32;;;;;;;3.80;1.60;;;18.30;82.00;;;;;;4956398;28;20086;-90
2022/05/23 09:05:06;;;;;;;5.72;2.10;;;18.40;82.10;;;;;;4972106;28;20071;-90
2022/05/23 09:07:44;;;;;;;4.75;1.60;;;18.60;80.00;;;;;;4956197;28;20026;-90
2022/05/23 09:10:27;;;;;;;2.95;1.85;;;18.80;82.40;;;;;;4971019;28;20023;-89
2022/05/23 09:12:53;;;;;;;2.45;1.55;;;19.10;80.90;;;;;;4952973;28;20031;-92
2022/05/23 09:15:20;;;;;;;2.50;1.60;;;19.40;79.10;;;;;;4936703;29;20390;-91
2022/05/23 09:17:57;;;;;;;2.88;1.63;;;19.70;77.40;;;;;;4940655;29;20428;-90
2022/05/23 09:20:33;;;;;;;2.95;1.73;;;20.10;77.10;;;;;;4947033;29;20031;-91
2022/05/23 09:23:03;;;;;;;5.63;1.92;;;20.50;75.60;;;;;;4956949;29;20046;-91
2022/05/23 09:25:30;;;;;;;3.17;1.60;;;21.20;75.60;;;;;;4955318;28;20179;-91
2022/05/23 09:28:28;;;;;;;4.70;1.60;;;21.60;73.20;;;;;;4956366;29;20047;-91
2022/05/23 09:31:01;;;;;;;4.72;1.80;;;21.70;72.10;;;;;;4958209;29;20038;-90
2022/05/23 09:33:30;;;;;;;2.85;1.50;;;22.20;70.20;;;;;;4976468;28;20034;-91
2022/05/23 09:36:18;;;;;;;6.32;2.03;;;22.30;70.10;;;;;;4956391;28;20024;-92
2022/05/23 09:38:55;;;;;;;3.55;1.50;;;22.70;70.70;;;;;;4958272;28;20735;-92
2022/05/23 09:50:09;;;;;;;3.67;1.73;;;23.90;63.00;;;;;;4976461;28;20090;-92
2022/05/23 09:52:47;;;;;;;3.38;1.75;;;23.60;62.90;;;;;;4964536;28;20039;-92
2022/05/23 09:55:21;;;;;;;2.95;1.50;;;23.00;64.70;;;;;;4967844;28;20502;-93
2022/05/23 09:57:53;;;;;;;5.03;1.92;;;22.80;66.30;;;;;;4975029;28;20561;-91
2022/05/23 10:00:22;;;;;;;3.90;1.40;;;23.50;66.00;;;;;;4958133;28;20037;-92
2022/05/23 10:02:57;;;;;;;2.33;1.35;;;24.30;62.70;;;;;;4965106;28;20115;-91
2022/05/23 10:05:28;;;;;;;7.05;1.50;;;24.10;60.90;;;;;;4966100;28;20030;-92
2022/05/23 10:08:05;;;;;;;4.47;1.35;;;24.20;63.30;;;;;;4952915;28;20043;-92
2022/05/23 10:10:36;;;;;;;3.92;1.70;;;23.80;61.00;;;;;;4951946;28;20046;-92
2022/05/23 10:13:20;;;;;;;3.17;1.65;;;23.70;61.40;;;;;;4959930;28;20483;-93
2022/05/23 10:15:53;;;;;;;1.92;1.30;;;23.80;61.80;;;;;;4965054;28;20023;-92
2022/05/23 10:18:57;;;;;;;2.13;1.40;;;24.00;62.50;;;;;;4943824;28;20028;-92
2022/05/23 10:21:31;;;;;;;3.40;1.30;;;24.50;60.90;;;;;;4940164;28;20032;-95
2022/05/23 10:24:04;;;;;;;3.15;1.30;;;24.60;60.50;;;;;;4955025;29;20118;-95
2022/05/23 10:26:33;;;;;;;3.80;1.40;;;25.10;59.10;;;;;;4959852;29;20526;-92
2022/05/23 10:29:11;;;;;;;3.97;1.70;;;25.60;57.70;;;;;;4951618;29;20036;-93
2022/05/23 10:31:55;;;;;;;2.85;1.80;;;25.20;57.90;;;;;;4949802;28;20031;-93
2022/05/23 10:34:35;;;;;;;1.63;1.20;;;25.30;59.00;;;;;;4950933;28;20083;-94
2022/05/23 10:37:05;;;;;;;3.15;1.40;;;25.40;59.30;;;;;;4958713;29;20047;-92
2022/05/23 10:42:26;;;;;;;4.47;1.45;;;25.70;57.30;;;;;;4947159;29;20078;-92
2022/05/23 10:45:14;;;;;;;5.03;1.40;;;24.60;56.70;;;;;;4948881;29;20043;-91
2022/05/23 10:47:54;;;;;;;2.17;1.30;;;23.70;59.50;;;;;;4954788;29;20028;-92
2022/05/23 10:50:46;;;;;;;2.97;1.60;;;23.00;60.70;;;;;;4946646;29;20028;-92
2022/05/23 10:53:14;;;;;;;3.05;1.63;;;22.40;63.00;;;;;;4937554;29;20384;-92
2022/05/23 10:56:04;;;;;;;4.63;1.40;;;22.00;64.50;;;;;;4941372;29;20031;-92
2022/05/23 10:58:55;;;;;;;2.40;1.30;;;22.10;65.60;;;;;;4950904;29;20035;-91
2022/05/23 11:01:31;;;;;;;3.92;1.48;;;22.50;64.10;;;;;;4951018;29;20554;-91
2022/05/23 11:04:29;;;;;;;1.92;1.30;;;22.70;63.80;;;;;;4953426;28;20031;-91
2022/05/23 11:07:25;;;;;;;2.60;1.60;;;22.70;62.40;;;;;;4957079;28;20070;-92
2022/05/23 11:10:11;;;;;;;3.03;1.70;;;23.10;63.30;;;;;;4961111;28;20151;-93
2022/05/23 11:13:03;;;;;;;8.88;1.75;;;23.10;63.10;;;;;;4945343;29;20090;-94
2022/05/23 11:15:39;;;;;;;2.30;1.45;;;23.10;63.00;;;;;;4936577;29;20174;-92
2022/05/23 11:18:24;;;;;;;2.78;1.80;;;23.20;64.40;;;;;;4950264;28;20035;-93
2022/05/23 11:20:55;;;;;;;2.75;1.58;;;23.10;62.30;;;;;;4945860;29;20039;-91
2022/05/23 11:23:45;;;;;;;4.47;1.67;;;22.90;63.20;;;;;;4946972;28;20378;-93
2022/05/23 11:26:20;;;;;;;4.80;1.83;;;22.90;63.90;;;;;;4948588;29;20715;-93
2022/05/23 11:34:48;;;;;;;4.07;1.50;;;23.20;64.00;;;;;;4940624;29;20075;-93
2022/05/23 11:40:06;;;;;;;4.50;1.80;;;23.20;62.70;;;;;;4961594;28;19910;-92
2022/05/23 11:42:56;;;;;;;5.95;1.60;;;23.10;62.80;;;;;;4946601;28;20030;-93
2022/05/23 11:48:43;;;;;;;2.75;1.73;;;23.10;65.20;;;;;;4956769;28;20130;-92
2022/05/23 11:51:24;;;;;;;2.85;1.40;;;23.30;65.00;;;;;;4955080;28;20510;-94
2022/05/23 11:53:56;;;;;;;5.07;1.65;;;23.20;64.60;;;;;;4953960;28;20078;-95
2022/05/23 11:56:45;;;;;;;3.85;1.83;;;23.40;64.60;;;;;;4972092;28;20019;-92
2022/05/23 11:59:26;;;;;;;2.33;1.70;;;23.70;64.30;;;;;;4935601;29;20019;-92
2022/05/23 12:02:06;;;;;;;2.50;1.63;;;23.70;64.00;;;;;;4940101;29;20031;-92
2022/05/23 12:04:47;;;;;;;4.00;1.80;;;23.80;67.40;;;;;;4951053;28;20089;-93
2022/05/23 12:07:34;;;;;;;2.75;1.73;;;23.70;65.30;;;;;;4943930;29;20019;-92
2022/05/23 12:10:25;;;;;;;3.72;2.00;;;23.80;65.50;;;;;;4947485;28;20035;-92
2022/05/23 12:12:58;;;;;;;2.33;1.88;;;23.70;65.40;;;;;;4942583;29;20555;-90
2022/05/23 12:15:42;;;;;;;2.10;1.52;;;24.20;63.80;;;;;;4952769;28;20015;-93
2022/05/23 12:18:09;;;;;;;3.30;1.80;;;24.10;62.90;;;;;;4937413;29;20047;-93
2022/05/23 12:20:45;;;;;;;4.00;2.10;;;24.00;64.10;;;;;;4944046;29;20035;-92
2022/05/23 12:23:38;;;;;;;3.20;2.25;;;23.70;65.60;;;;;;4947664;28;20436;-90
2022/05/23 12:26:09;;;;;;;2.25;1.70;;;23.60;65.10;;;;;;4941170;29;20050;-92
2022/05/23 12:28:55;;;;;;;4.28;1.92;;;23.70;64.30;;;;;;4952100;28;20023;-93
2022/05/23 12:31:33;;;;;;;5.97;2.20;;;23.80;65.80;;;;;;4949795;28;20034;-93
2022/05/23 12:34:02;;;;;;;4.65;2.08;;;24.10;66.60;;;;;;4934157;28;20041;-93
2022/05/23 12:36:31;;;;;;;3.17;2.08;;;24.30;66.00;;;;;;4947251;28;20040;-92
2022/05/23 12:39:03;;;;;;;3.10;1.92;;;24.10;65.20;;;;;;4953605;28;20042;-91
2022/05/23 12:41:38;;;;;;;3.45;1.98;;;24.10;65.40;;;;;;4950700;28;20089;-95
2022/05/23 12:44:29;;;;;;;3.63;2.05;;;23.80;65.50;;;;;;4956322;28;20024;-91
2022/05/23 12:47:45;;;;;;;3.78;2.22;;;23.70;66.00;;;;;;4942394;29;20036;-92
2022/05/23 12:51:01;;;;;;;4.78;1.92;;;23.60;66.30;;;;;;4946616;28;20504;-92
2022/05/23 12:53:54;;;;;;;2.97;2.22;;;23.80;66.90;;;;;;4942143;29;20559;-93
2022/05/23 12:56:34;;;;;;;3.03;1.77;;;23.90;65.80;;;;;;4950465;28;20034;-91
2022/05/23 12:59:39;;;;;;;2.17;1.70;;;23.90;66.50;;;;;;4943392;29;20047;-92
2022/05/23 13:02:13;;;;;;;3.30;2.13;;;24.00;67.70;;;;;;4927999;29;20036;-90
2022/05/23 13:04:49;;;;;;;3.05;2.10;;;24.10;65.70;;;;;;4939854;29;20032;-91
2022/05/23 13:07:28;;;;;;;2.90;1.98;;;24.30;66.40;;;;;;4941450;29;20530;-94
2022/05/23 13:10:01;;;;;;;4.30;2.10;;;24.30;67.30;;;;;;4949451;29;20921;-92
2022/05/23 13:12:35;;;;;;;4.47;1.80;;;24.30;66.40;;;;;;4947822;28;20526;-91
2022/05/23 13:15:01;;;;;;;3.50;1.83;;;24.30;66.50;;;;;;4943738;28;20035;-92
2022/05/23 13:17:43;;;;;;;5.00;2.25;;;24.10;67.40;;;;;;4953170;28;20035;-92
2022/05/23 13:23:17;;;;;;;2.20;1.95;;;24.10;65.00;;;;;;4953893;28;20158;-92
2022/05/23 13:25:44;;;;;;;3.10;2.10;;;23.90;66.20;;;;;;4962010;28;20035;-92
2022/05/23 13:28:15;;;;;;;5.70;1.92;;;24.10;66.70;;;;;;4957608;29;20097;-93
2022/05/23 13:30:50;;;;;;;3.25;1.90;;;24.20;67.60;;;;;;4949334;28;20032;-91
2022/05/23 13:33:22;;;;;;;2.83;1.60;;;24.50;65.80;;;;;;4951761;28;20031;-94
2022/05/23 13:35:57;;;;;;;2.33;2.00;;;24.50;66.30;;;;;;4957183;28;20051;-94
2022/05/23 13:38:28;;;;;;;3.50;1.75;;;25.10;65.00;;;;;;4949605;29;20023;-92
2022/05/23 13:40:56;;;;;;;2.60;1.55;;;25.10;64.60;;;;;;4951816;28;20070;-92
2022/05/23 13:43:28;;;;;;;4.45;1.70;;;25.00;62.90;;;;;;4947159;28;20027;-92
2022/05/23 13:46:18;;;;;;;3.72;2.00;;;25.10;64.40;;;;;;4944649;29;20039;-92
2022/05/23 13:48:47;;;;;;;2.17;1.80;;;25.10;62.90;;;;;;4954756;29;20031;-93
2022/05/23 13:51:33;;;;;;;2.85;1.92;;;25.00;64.00;;;;;;4948975;28;20509;-92
2022/05/23 13:54:08;;;;;;;4.13;1.70;;;24.90;63.40;;;;;;4945911;28;20735;-93
2022/05/23 13:56:38;;;;;;;6.00;2.10;;;25.10;64.80;;;;;;4941516;29;20038;-93
2022/05/23 13:59:09;;;;;;;2.13;1.50;;;25.00;63.00;;;;;;4945208;29;20400;-93
2022/05/23 14:01:40;;;;;;;5.03;1.73;;;24.80;64.10;;;;;;4944589;28;20051;-92
2022/05/23 14:04:10;;;;;;;3.45;1.85;;;24.70;65.70;;;;;;4953833;28;20111;-92
2022/05/23 14:06:47;;;;;;;2.93;1.73;;;24.50;65.40;;;;;;4940961;29;20063;-92
2022/05/23 14:09:13;;;;;;;2.05;1.60;;;24.60;65.10;;;;;;4941087;29;20085;-92
2022/05/23 14:11:46;;;;;;;5.78;1.92;;;24.60;66.40;;;;;;4959215;28;20111;-92